Adelphi, Ohio
Current Conditions -  °F | °C
As of 6:54 PM on Friday 24 Oct 2014 (Local Time) from KRZT Reporting Station
Clear Clear  
Wind Chill: 55°   Ceiling: Unl
Heat Index: 55°   Visibility: 10mi
Dew Point: 36°   Wind: 3mph
Humidity: 47%   Direction: 300°WNW
Pressure: 30.03"   Gusts: NA
Location:  39.47°N, 82.75°W
Report Text: KRZT 242254Z AUTO 30003KT 10SM CLR 13/02 A3003 RMK AO2
Loading
Personal Weather Stations






























Interactive Weather Map
Tropical Storm Tracking
New forecast layout! Learn more

10-Day Weather Forecast

Advertisements
Track Severe Weather on mobile